Time;durP1;ratioP1;P1;durP2;ratioP2;P2;SDS_P1;SDS_P2;PMS_P1;PMS_P2;Temp;Humidity;BMP_temperature;BMP_pressure;BME280_temperature;BME280_humidity;BME280_pressure;Samples;Min_cycle;Max_cycle;Signal;HPM_P1;HPM_P2
2023/08/06 00:00:09;;;;;;;1.58;1.10;;;;;;;16.76;64.50;91761.72;4788619;29;20196;-81
2023/08/06 00:02:34;;;;;;;2.00;1.30;;;;;;;16.80;64.80;91766.03;4787262;30;20066;-81
2023/08/06 00:05:00;;;;;;;2.22;1.20;;;;;;;16.77;64.36;91760.63;4788992;29;20041;-82
2023/08/06 00:07:26;;;;;;;2.53;1.40;;;;;;;16.77;63.80;91769.31;4789701;29;20051;-81
2023/08/06 00:09:51;;;;;;;2.00;1.17;;;;;;;16.79;61.63;91764.47;4788421;30;20035;-81
2023/08/06 00:12:17;;;;;;;2.72;1.40;;;;;;;16.83;62.78;91765.34;4789047;29;20064;-81
2023/08/06 00:14:43;;;;;;;2.17;1.30;;;;;;;16.76;63.89;91762.50;4789597;29;20043;-80
2023/08/06 00:17:09;;;;;;;3.92;1.30;;;;;;;16.70;64.69;91771.78;4789354;29;20047;-80
2023/08/06 00:19:34;;;;;;;2.90;1.40;;;;;;;16.64;63.91;91768.63;4789511;29;20043;-81
2023/08/06 00:22:01;;;;;;;3.58;1.33;;;;;;;16.60;63.77;91769.66;4787212;30;20035;-81
2023/08/06 00:24:27;;;;;;;1.92;1.20;;;;;;;16.53;64.66;91767.59;4788661;29;20051;-81
2023/08/06 00:26:53;;;;;;;2.08;1.20;;;;;;;16.50;64.17;91762.97;4788270;29;20097;-80
2023/08/06 00:29:20;;;;;;;2.17;1.38;;;;;;;16.49;63.57;91771.28;4788747;29;20047;-81
2023/08/06 00:31:45;;;;;;;2.38;1.38;;;;;;;16.44;65.01;91767.75;4789335;29;20047;-82
2023/08/06 00:34:11;;;;;;;2.63;1.30;;;;;;;16.41;64.00;91771.09;4789148;29;20400;-82
2023/08/06 00:36:36;;;;;;;2.78;1.30;;;;;;;16.34;66.21;91770.88;4790797;29;20498;-81
2023/08/06 00:39:02;;;;;;;1.63;1.20;;;;;;;16.35;64.65;91772.44;4792189;29;20050;-82
2023/08/06 00:41:28;;;;;;;2.28;1.30;;;;;;;16.30;65.33;91767.41;4791869;29;20502;-82
2023/08/06 00:43:53;;;;;;;1.73;1.17;;;;;;;16.26;64.92;91761.28;4791806;29;20031;-82
2023/08/06 00:46:19;;;;;;;2.95;1.40;;;;;;;16.18;65.00;91751.63;4791070;29;20038;-81
2023/08/06 00:48:46;;;;;;;3.22;1.50;;;;;;;16.15;66.02;91758.34;4790937;30;20098;-80
2023/08/06 00:51:12;;;;;;;2.78;1.30;;;;;;;16.11;65.49;91751.44;4791436;30;20047;-81
2023/08/06 00:53:39;;;;;;;2.05;1.30;;;;;;;16.05;64.61;91745.63;4791816;29;20066;-81
2023/08/06 00:56:05;;;;;;;5.22;1.40;;;;;;;15.97;66.52;91741.28;4791428;29;20039;-81
2023/08/06 00:58:30;;;;;;;2.90;1.20;;;;;;;15.93;67.14;91745.69;4791163;30;20141;-81
2023/08/06 01:00:56;;;;;;;2.47;1.50;;;;;;;15.86;67.29;91748.16;4790771;30;20482;-81
2023/08/06 01:03:23;;;;;;;3.17;1.30;;;;;;;15.79;67.59;91741.56;4790513;30;20031;-80
2023/08/06 01:05:49;;;;;;;4.55;1.58;;;;;;;15.76;67.32;91736.97;4789716;30;20559;-80
2023/08/06 01:09:02;;;;;;;5.00;1.48;;;;;;;15.89;66.59;91734.25;4791595;29;20047;-81
2023/08/06 01:12:00;;;;;;;3.33;1.50;;;;;;;15.83;64.81;91736.41;4780209;29;20051;-82
2023/08/06 01:14:38;;;;;;;3.33;1.50;;;;;;;15.87;62.56;91731.94;4760096;30;20053;-82
2023/08/06 01:17:04;;;;;;;3.70;1.45;;;;;;;15.92;65.81;91739.66;4791771;29;20093;-81
2023/08/06 01:19:30;;;;;;;1.83;1.30;;;;;;;15.91;65.86;91732.81;4790698;30;20068;-83
2023/08/06 01:21:55;;;;;;;3.95;1.40;;;;;;;15.86;66.01;91733.06;4789929;30;20055;-82
2023/08/06 01:24:21;;;;;;;2.25;1.35;;;;;;;15.79;66.17;91730.25;4790516;30;20043;-82
2023/08/06 01:27:06;;;;;;;2.70;1.38;;;;;;;15.76;66.04;91730.91;4790892;29;20131;-82
2023/08/06 01:29:39;;;;;;;2.50;1.50;;;;;;;15.73;65.90;91724.44;4791051;29;20088;-82
2023/08/06 01:32:06;;;;;;;2.55;1.40;;;;;;;15.69;66.09;91726.16;4791753;29;20086;-82
2023/08/06 01:34:34;;;;;;;1.92;1.20;;;;;;;15.67;66.80;91728.41;4789896;30;20047;-80
2023/08/06 01:37:00;;;;;;;2.90;1.50;;;;;;;15.61;67.07;91724.47;4790654;29;20047;-81
2023/08/06 01:39:26;;;;;;;3.38;1.70;;;;;;;15.57;67.38;91729.63;4791234;29;20035;-81
2023/08/06 01:41:51;;;;;;;3.88;2.42;;;;;;;15.52;68.35;91727.22;4804797;29;20452;-81
2023/08/06 01:44:18;;;;;;;2.67;1.30;;;;;;;15.47;68.61;91726.69;4790497;29;20529;-81
2023/08/06 01:46:43;;;;;;;3.00;1.42;;;;;;;15.42;68.75;91717.13;4804481;29;20035;-81
2023/08/06 01:49:09;;;;;;;2.67;1.48;;;;;;;15.35;68.72;91715.06;4789605;30;20050;-81
2023/08/06 01:51:34;;;;;;;2.90;1.40;;;;;;;15.32;68.54;91720.25;4791201;29;20151;-81
2023/08/06 01:54:00;;;;;;;3.13;1.50;;;;;;;15.30;67.97;91719.81;4801640;29;20134;-82
2023/08/06 01:56:25;;;;;;;2.53;1.40;;;;;;;15.26;67.73;91724.22;4772837;30;20078;-81
2023/08/06 01:58:51;;;;;;;3.00;1.38;;;;;;;15.26;68.22;91716.31;4786593;29;20419;-81
2023/08/06 02:01:17;;;;;;;3.22;1.50;;;;;;;15.25;68.97;91717.41;4801607;29;20117;-81
2023/08/06 02:03:42;;;;;;;2.75;1.50;;;;;;;15.19;69.30;91715.00;4776714;29;20410;-82
2023/08/06 02:06:10;;;;;;;3.17;1.45;;;;;;;15.16;69.06;91704.34;4789742;29;20139;-81
2023/08/06 02:08:35;;;;;;;2.90;1.30;;;;;;;15.11;68.14;91701.97;4791375;29;20039;-81
2023/08/06 02:11:02;;;;;;;2.15;1.33;;;;;;;15.09;67.48;91694.38;4788898;30;20414;-82
2023/08/06 02:13:30;;;;;;;2.28;1.40;;;;;;;15.04;67.84;91694.63;4790999;29;20057;-81
2023/08/06 02:15:55;;;;;;;3.70;1.33;;;;;;;15.12;63.88;91682.41;4790124;29;20051;-81
2023/08/06 02:18:21;;;;;;;2.45;1.25;;;;;;;15.35;62.28;91680.03;4791230;30;20058;-81
2023/08/06 02:20:57;;;;;;;2.40;1.35;;;;;;;15.49;62.61;91683.06;4789710;30;20108;-80
2023/08/06 02:23:23;;;;;;;3.00;1.40;;;;;;;15.48;62.65;91684.16;4791276;29;20035;-81
2023/08/06 02:25:56;;;;;;;3.10;1.30;;;;;;;15.50;63.92;91681.94;4788806;30;20051;-81
2023/08/06 02:28:21;;;;;;;3.70;1.50;;;;;;;15.46;62.90;91672.41;4788899;30;20078;-81
2023/08/06 02:30:53;;;;;;;1.98;1.20;;;;;;;15.38;63.46;91668.81;4790925;29;20075;-81
2023/08/06 02:33:19;;;;;;;2.35;1.33;;;;;;;15.29;64.61;91671.59;4790618;29;20050;-81
2023/08/06 02:35:44;;;;;;;3.30;1.45;;;;;;;15.16;65.97;91662.94;4790234;29;20051;-81
2023/08/06 02:38:10;;;;;;;3.42;1.40;;;;;;;15.08;66.84;91666.47;4789520;29;20040;-82
2023/08/06 02:40:36;;;;;;;2.55;1.42;;;;;;;15.02;67.20;91657.28;4789303;30;20126;-81
2023/08/06 02:43:01;;;;;;;3.03;1.50;;;;;;;14.95;67.56;91657.06;4789715;30;20071;-81
2023/08/06 02:45:27;;;;;;;2.13;1.38;;;;;;;14.92;66.55;91657.72;4789192;30;20036;-81
2023/08/06 02:47:52;;;;;;;2.70;1.35;;;;;;;14.96;61.05;91659.38;4788909;29;20043;-81
2023/08/06 02:50:18;;;;;;;3.58;1.30;;;;;;;15.12;57.15;91656.03;4790172;30;20051;-82
2023/08/06 02:52:43;;;;;;;2.80;1.33;;;;;;;15.33;55.47;91661.13;4788871;29;20043;-81
2023/08/06 02:55:09;;;;;;;3.05;1.40;;;;;;;15.42;55.30;91661.75;4774302;30;20542;-81
2023/08/06 02:57:40;;;;;;;2.35;1.23;;;;;;;15.52;55.07;91666.56;4788537;29;20035;-81
2023/08/06 03:00:06;;;;;;;2.35;1.20;;;;;;;15.56;55.13;91664.03;4803911;29;20047;-82
2023/08/06 03:02:32;;;;;;;2.17;1.20;;;;;;;15.65;54.79;91656.72;4803587;29;20043;-80
2023/08/06 03:05:04;;;;;;;3.23;1.30;;;;;;;15.75;54.78;91650.22;4804584;29;20043;-81
2023/08/06 03:07:35;;;;;;;3.13;1.50;;;;;;;15.85;55.32;91655.03;4800936;29;20560;-81
2023/08/06 03:10:07;;;;;;;1.88;1.23;;;;;;;15.74;56.14;91649.47;4801325;29;20055;-81
2023/08/06 03:12:34;;;;;;;1.83;1.10;;;;;;;15.68;55.49;91644.75;4801070;29;20538;-81
2023/08/06 03:15:02;;;;;;;1.55;1.10;;;;;;;15.70;54.39;91647.81;4785938;29;20051;-81
2023/08/06 03:17:27;;;;;;;2.25;1.27;;;;;;;15.71;55.58;91655.41;4774492;30;20027;-81
2023/08/06 03:19:53;;;;;;;2.50;1.40;;;;;;;15.65;57.04;91655.94;4788733;30;20114;-82
2023/08/06 03:22:19;;;;;;;1.73;1.10;;;;;;;15.59;58.15;91653.56;4788531;30;20047;-81
2023/08/06 03:24:44;;;;;;;3.40;1.48;;;;;;;15.53;57.46;91656.78;4788682;30;20521;-81
2023/08/06 03:27:11;;;;;;;2.28;1.23;;;;;;;15.57;56.93;91660.28;4788138;29;20059;-82
2023/08/06 03:29:39;;;;;;;2.47;1.38;;;;;;;15.55;57.75;91662.47;4787910;29;20111;-82
2023/08/06 03:32:05;;;;;;;3.78;1.45;;;;;;;15.46;61.86;91665.25;4801047;29;20082;-81
2023/08/06 03:34:31;;;;;;;2.25;1.20;;;;;;;15.33;62.50;91661.13;4803623;29;20051;-82
2023/08/06 03:36:56;;;;;;;2.22;1.40;;;;;;;15.24;62.26;91663.13;4789071;30;20055;-81
2023/08/06 03:39:22;;;;;;;2.55;1.30;;;;;;;15.16;62.12;91657.66;4790322;29;20035;-81
2023/08/06 03:41:47;;;;;;;4.25;1.67;;;;;;;15.09;62.44;91664.63;4790904;29;20043;-82
2023/08/06 03:44:13;;;;;;;2.10;1.20;;;;;;;15.00;62.64;91656.84;4803812;29;20092;-81
2023/08/06 03:46:39;;;;;;;2.40;1.27;;;;;;;14.94;62.29;91655.53;4803424;29;20506;-81
2023/08/06 03:49:07;;;;;;;2.28;1.38;;;;;;;14.88;63.26;91656.84;4803210;29;20038;-81
2023/08/06 03:51:33;;;;;;;3.33;1.25;;;;;;;14.83;62.73;91668.38;4774026;30;20051;-82
2023/08/06 03:53:59;;;;;;;2.78;1.50;;;;;;;14.80;61.81;91657.75;4803428;29;20045;-82
2023/08/06 03:56:25;;;;;;;2.38;1.33;;;;;;;14.80;61.37;91660.41;4803932;29;20028;-81
2023/08/06 03:58:51;;;;;;;4.05;1.30;;;;;;;14.78;62.15;91661.47;4803250;29;20055;-82
2023/08/06 04:01:16;;;;;;;2.65;1.30;;;;;;;14.74;61.75;91660.59;4799478;29;20473;-81
2023/08/06 04:03:44;;;;;;;2.03;1.20;;;;;;;14.71;61.82;91669.16;4799799;29;20197;-81
2023/08/06 04:06:10;;;;;;;3.13;1.17;;;;;;;14.67;62.44;91673.56;4771745;29;20059;-82
2023/08/06 04:08:36;;;;;;;2.47;1.40;;;;;;;14.66;61.79;91665.97;4785396;29;20047;-81
2023/08/06 04:11:02;;;;;;;2.42;1.30;;;;;;;14.69;59.20;91670.59;4768711;30;20039;-81
2023/08/06 04:13:27;;;;;;;2.88;1.30;;;;;;;14.74;59.71;91668.50;4793744;30;20069;-81
2023/08/06 04:15:54;;;;;;;3.20;1.30;;;;;;;14.76;62.07;91668.19;4777112;29;20047;-81
2023/08/06 04:18:20;;;;;;;2.20;1.30;;;;;;;14.74;58.26;91671.13;4791266;30;20070;-80
2023/08/06 04:20:49;;;;;;;2.13;1.20;;;;;;;14.80;58.71;91670.94;4791390;30;20069;-81
2023/08/06 04:23:15;;;;;;;2.78;1.30;;;;;;;14.83;57.63;91676.28;4793019;29;20499;-82
2023/08/06 04:25:41;;;;;;;2.00;1.23;;;;;;;14.82;57.78;91666.09;4791870;30;20096;-81
2023/08/06 04:28:07;;;;;;;2.08;1.25;;;;;;;14.83;57.05;91671.03;4776157;30;20523;-81
2023/08/06 04:30:33;;;;;;;2.95;1.50;;;;;;;14.82;55.71;91674.75;4777047;30;20142;-80
2023/08/06 04:33:00;;;;;;;2.30;1.30;;;;;;;14.88;55.65;91688.47;4791346;30;20092;-81
2023/08/06 04:35:26;;;;;;;2.72;1.40;;;;;;;14.88;55.87;91685.84;4792321;30;20402;-81
2023/08/06 04:37:52;;;;;;;3.30;1.45;;;;;;;14.88;57.39;91675.28;4791310;29;20137;-81
2023/08/06 04:40:18;;;;;;;2.38;1.50;;;;;;;14.87;56.98;91676.41;4791947;30;20043;-82
2023/08/06 04:42:43;;;;;;;2.47;1.42;;;;;;;14.88;56.61;91680.56;4791104;30;20212;-82
2023/08/06 04:45:09;;;;;;;3.22;1.33;;;;;;;14.94;56.47;91673.97;4792244;30;20031;-81
2023/08/06 04:47:35;;;;;;;2.53;1.38;;;;;;;15.05;53.81;91677.69;4792923;29;20039;-82
2023/08/06 04:50:01;;;;;;;3.22;1.40;;;;;;;15.08;53.96;91673.63;4791392;30;20055;-81
2023/08/06 04:52:28;;;;;;;2.97;1.45;;;;;;;15.16;53.94;91683.28;4791129;30;20108;-81
2023/08/06 04:54:54;;;;;;;2.17;1.33;;;;;;;15.18;53.68;91673.94;4792727;29;20032;-81
2023/08/06 04:57:20;;;;;;;2.90;1.48;;;;;;;15.25;53.89;91675.22;4791188;29;20088;-81
2023/08/06 04:59:45;;;;;;;5.13;1.63;;;;;;;15.20;53.68;91660.41;4792130;30;20051;-82
2023/08/06 05:02:11;;;;;;;2.80;1.42;;;;;;;15.33;53.84;91675.09;4792199;29;20070;-81
2023/08/06 05:04:37;;;;;;;2.60;1.45;;;;;;;15.32;53.80;91681.47;4791320;30;20130;-81
2023/08/06 05:07:03;;;;;;;3.33;1.45;;;;;;;15.36;53.56;91678.94;4792446;29;20043;-81
2023/08/06 05:09:29;;;;;;;3.10;1.77;;;;;;;15.39;55.44;91684.28;4790894;30;20047;-81
2023/08/06 05:11:54;;;;;;;2.65;1.50;;;;;;;15.38;55.45;91685.41;4790511;30;20070;-81
2023/08/06 05:14:20;;;;;;;3.25;1.60;;;;;;;15.37;55.39;91685.72;4789284;30;20544;-81
2023/08/06 05:16:45;;;;;;;6.15;1.50;;;;;;;15.40;55.29;91687.69;4790155;29;20047;-81
2023/08/06 05:19:11;;;;;;;2.95;1.40;;;;;;;15.43;55.55;91681.75;4790656;29;20050;-81
2023/08/06 05:21:37;;;;;;;2.67;1.58;;;;;;;15.50;55.03;91681.94;4790815;30;20177;-82
2023/08/06 05:24:02;;;;;;;5.05;1.60;;;;;;;15.59;55.22;91684.44;4791585;30;20047;-81
2023/08/06 05:26:28;;;;;;;4.15;1.58;;;;;;;15.70;54.95;91679.47;4773474;30;20070;-81
2023/08/06 05:28:54;;;;;;;3.00;1.40;;;;;;;15.80;55.20;91673.72;4787869;30;20418;-81
2023/08/06 05:31:19;;;;;;;2.90;1.40;;;;;;;15.91;54.84;91674.00;4774263;30;20055;-81
2023/08/06 05:33:45;;;;;;;3.75;1.50;;;;;;;16.02;55.24;91675.03;4774187;30;20042;-82
2023/08/06 05:36:10;;;;;;;3.00;1.50;;;;;;;16.16;54.67;91679.91;4786429;30;20395;-81
2023/08/06 05:38:36;;;;;;;2.60;1.40;;;;;;;16.26;54.77;91670.69;4791762;30;20054;-81
2023/08/06 05:41:02;;;;;;;3.50;1.60;;;;;;;16.37;54.56;91677.78;4791572;29;20031;-81
2023/08/06 05:43:27;;;;;;;2.45;1.40;;;;;;;16.48;54.02;91687.84;4791880;29;20283;-81
2023/08/06 05:45:53;;;;;;;2.63;1.30;;;;;;;16.59;53.27;91680.91;4791129;30;20074;-81
2023/08/06 05:48:19;;;;;;;2.70;1.42;;;;;;;16.68;52.98;91684.16;4791422;29;20061;-81
2023/08/06 05:50:44;;;;;;;3.90;1.33;;;;;;;16.78;52.38;91696.09;4791417;29;20102;-81
2023/08/06 05:53:10;;;;;;;2.38;1.40;;;;;;;16.85;53.22;91693.63;4791424;29;20442;-82
2023/08/06 05:55:35;;;;;;;3.10;1.58;;;;;;;16.96;51.98;91697.28;4791733;29;20032;-82
2023/08/06 05:58:01;;;;;;;2.45;1.30;;;;;;;17.06;52.27;91688.81;4789953;29;20198;-82
2023/08/06 06:00:26;;;;;;;2.75;1.40;;;;;;;17.17;51.96;91693.56;4790354;30;20043;-81
2023/08/06 06:02:52;;;;;;;2.45;1.38;;;;;;;17.28;50.96;91699.84;4790325;30;20042;-81
2023/08/06 06:05:17;;;;;;;3.05;1.60;;;;;;;17.43;50.57;91708.84;4791448;30;20080;-82
2023/08/06 06:07:43;;;;;;;2.65;1.48;;;;;;;17.63;49.02;91709.59;4790814;29;20055;-82
2023/08/06 06:10:09;;;;;;;2.40;1.50;;;;;;;18.27;46.22;91710.06;4789650;30;20123;-82
2023/08/06 06:12:34;;;;;;;2.83;1.40;;;;;;;19.42;43.99;91696.69;4790018;30;20056;-81
2023/08/06 06:15:00;;;;;;;2.33;1.27;;;;;;;20.59;41.83;91707.09;4791159;29;20051;-82
2023/08/06 06:17:27;;;;;;;2.35;1.27;;;;;;;21.63;39.42;91701.72;4790938;29;20071;-83
2023/08/06 06:19:53;;;;;;;1.45;1.10;;;;;;;22.63;37.15;91707.38;4790206;30;20498;-83
2023/08/06 06:22:18;;;;;;;2.58;1.35;;;;;;;23.27;36.27;91700.53;4789514;29;20046;-83
2023/08/06 06:24:44;;;;;;;2.45;1.40;;;;;;;23.84;36.22;91700.38;4775561;30;20042;-83
2023/08/06 06:27:10;;;;;;;2.42;1.50;;;;;;;24.58;34.14;91705.78;4791304;29;20094;-83
2023/08/06 06:29:35;;;;;;;2.92;1.50;;;;;;;25.08;32.77;91708.09;4790283;29;20077;-83
2023/08/06 06:32:01;;;;;;;3.47;1.70;;;;;;;25.46;32.38;91697.44;4790294;29;20084;-84
2023/08/06 06:34:26;;;;;;;2.70;1.60;;;;;;;25.99;32.15;91708.03;4790892;30;20055;-81
2023/08/06 06:36:52;;;;;;;2.90;1.55;;;;;;;26.45;30.33;91707.44;4790633;29;20039;-81
2023/08/06 06:39:18;;;;;;;2.80;1.40;;;;;;;26.48;30.64;91705.84;4789000;29;20096;-81
2023/08/06 06:41:44;;;;;;;2.67;1.55;;;;;;;26.87;30.46;91709.94;4789647;30;20054;-81
2023/08/06 06:44:21;;;;;;;2.83;1.67;;;;;;;26.84;28.95;91700.00;4776408;30;20043;-81
2023/08/06 06:46:47;;;;;;;2.70;1.60;;;;;;;26.92;29.76;91701.41;4789580;29;20054;-81
2023/08/06 06:49:12;;;;;;;2.85;1.70;;;;;;;26.86;29.63;91705.72;4775303;30;20100;-80
2023/08/06 06:51:38;;;;;;;2.40;1.40;;;;;;;26.60;29.49;91715.31;4791026;30;20039;-81
2023/08/06 06:54:04;;;;;;;2.83;1.60;;;;;;;26.57;28.94;91709.59;4789808;30;20498;-81
2023/08/06 06:56:29;;;;;;;2.92;1.50;;;;;;;26.44;29.29;91713.97;4791203;29;20038;-82
2023/08/06 06:58:55;;;;;;;2.95;1.65;;;;;;;26.34;29.63;91706.81;4790825;29;20130;-81
2023/08/06 07:01:20;;;;;;;2.58;1.40;;;;;;;26.28;25.28;91703.84;4788722;30;20074;-81
2023/08/06 07:03:46;;;;;;;3.17;1.60;;;;;;;26.07;28.32;91702.16;4790112;29;20035;-81
2023/08/06 07:06:12;;;;;;;2.75;1.50;;;;;;;26.17;29.51;91700.53;4790242;29;20047;-81
2023/08/06 07:08:38;;;;;;;4.75;1.55;;;;;;;26.02;29.24;91699.19;4789030;29;20059;-81
2023/08/06 07:11:05;;;;;;;2.55;1.48;;;;;;;26.07;28.80;91706.75;4788730;30;20053;-81
2023/08/06 07:13:31;;;;;;;2.83;1.45;;;;;;;25.59;25.50;91686.22;4786485;29;20058;-81
2023/08/06 07:15:57;;;;;;;2.58;1.40;;;;;;;25.68;24.88;91689.19;4787829;29;20163;-79
2023/08/06 07:18:24;;;;;;;2.83;1.48;;;;;;;24.96;28.89;91678.38;4787333;30;20126;-78
2023/08/06 07:20:53;;;;;;;3.13;1.45;;;;;;;24.54;33.78;91680.97;4787535;30;20103;-80
2023/08/06 07:23:21;;;;;;;2.83;1.38;;;;;;;24.51;32.54;91679.84;4781950;30;20047;-79
2023/08/06 07:25:47;;;;;;;2.33;1.33;;;;;;;25.16;32.98;91683.94;4788301;30;20091;-79
2023/08/06 07:28:14;;;;;;;2.33;1.40;;;;;;;25.16;27.96;91676.66;4787624;30;20501;-79
2023/08/06 07:30:40;;;;;;;3.03;1.50;;;;;;;24.07;31.72;91678.53;4764404;30;20050;-78
2023/08/06 07:33:06;;;;;;;2.05;1.25;;;;;;;23.98;31.52;91693.47;4787097;29;20096;-77
2023/08/06 07:35:32;;;;;;;2.97;1.50;;;;;;;24.05;29.42;91688.09;4785946;30;20086;-78
2023/08/06 07:37:58;;;;;;;2.60;1.40;;;;;;;24.68;28.77;91680.13;4784024;29;20043;-78
2023/08/06 07:40:24;;;;;;;3.25;1.65;;;;;;;24.59;28.60;91688.59;4787481;29;20091;-80
2023/08/06 07:42:49;;;;;;;2.33;1.35;;;;;;;24.49;28.79;91695.50;4787543;30;20489;-79
2023/08/06 07:45:15;;;;;;;2.50;1.20;;;;;;;24.52;27.48;91694.00;4786332;30;20550;-78
2023/08/06 07:47:40;;;;;;;2.72;1.33;;;;;;;24.43;28.41;91696.28;4788779;29;20387;-78
2023/08/06 07:50:06;;;;;;;2.42;1.27;;;;;;;24.30;28.59;91707.44;4788610;30;20047;-78
2023/08/06 07:52:32;;;;;;;1.52;1.00;;;;;;;24.35;27.38;91697.50;4789087;29;20055;-78
2023/08/06 07:54:58;;;;;;;3.67;1.35;;;;;;;24.45;27.43;91702.00;4787401;29;20035;-78
2023/08/06 07:57:24;;;;;;;2.67;1.33;;;;;;;24.20;30.66;91710.16;4786035;29;20050;-79
2023/08/06 07:59:50;;;;;;;2.00;1.15;;;;;;;24.28;28.11;91699.06;4787336;29;20457;-78
2023/08/06 08:02:15;;;;;;;2.17;1.10;;;;;;;24.21;27.24;91712.47;4786550;29;20035;-79
2023/08/06 08:04:41;;;;;;;2.42;1.38;;;;;;;23.52;29.11;91707.72;4787928;30;20134;-79
2023/08/06 08:07:07;;;;;;;7.50;1.60;;;;;;;22.69;31.29;91707.75;4789865;29;20044;-79
2023/08/06 08:09:34;;;;;;;2.50;1.35;;;;;;;22.12;33.10;91715.63;4788618;30;20466;-78
2023/08/06 08:12:02;;;;;;;2.22;1.23;;;;;;;22.21;32.10;91708.81;4788660;30;20089;-78
2023/08/06 08:14:28;;;;;;;2.20;1.20;;;;;;;22.36;34.40;91706.97;4787489;30;20514;-81
2023/08/06 08:16:55;;;;;;;1.75;1.00;;;;;;;22.86;30.21;91709.66;4775505;30;20037;-80
2023/08/06 08:19:21;;;;;;;3.97;1.58;;;;;;;23.17;31.98;91722.63;4788117;30;20114;-81
2023/08/06 08:21:46;;;;;;;2.33;1.30;;;;;;;23.63;32.55;91729.81;4790137;30;20040;-81
2023/08/06 08:24:12;;;;;;;2.05;1.25;;;;;;;23.82;31.36;91724.09;4788767;30;20565;-81
2023/08/06 08:26:37;;;;;;;4.40;1.50;;;;;;;24.00;32.37;91731.25;4797232;29;20051;-82
2023/08/06 08:29:03;;;;;;;1.58;1.15;;;;;;;24.11;27.21;91729.31;4788613;30;20046;-82
2023/08/06 08:31:29;;;;;;;1.92;1.10;;;;;;;23.92;26.59;91727.88;4787614;30;20126;-79
2023/08/06 08:33:55;;;;;;;2.85;1.30;;;;;;;23.54;31.42;91721.47;4788959;29;20126;-81
2023/08/06 08:36:21;;;;;;;2.67;1.40;;;;;;;23.69;29.80;91730.97;4788068;29;20115;-81
2023/08/06 08:38:46;;;;;;;2.42;1.48;;;;;;;23.44;29.69;91726.44;4789332;29;20071;-81
2023/08/06 08:41:12;;;;;;;4.25;1.30;;;;;;;23.10;30.28;91715.41;4788504;30;20051;-81
2023/08/06 08:43:40;;;;;;;2.15;1.20;;;;;;;23.27;31.78;91716.53;4758614;30;20411;-81
2023/08/06 08:46:08;;;;;;;3.03;1.50;;;;;;;23.47;31.92;91728.34;4789174;29;20398;-81
2023/08/06 08:48:34;;;;;;;2.30;1.10;;;;;;;23.12;28.14;91715.03;4787804;29;20573;-81
2023/08/06 08:51:02;;;;;;;2.17;1.20;;;;;;;23.16;30.13;91721.88;4788430;30;20136;-81
2023/08/06 08:53:28;;;;;;;2.53;1.25;;;;;;;23.38;31.46;91725.28;4789737;29;20039;-81
2023/08/06 08:55:55;;;;;;;3.20;1.30;;;;;;;23.74;31.12;91727.88;4790441;29;20176;-80
2023/08/06 08:58:20;;;;;;;2.05;1.20;;;;;;;23.33;30.52;91727.59;4792439;29;20058;-81
2023/08/06 09:00:48;;;;;;;1.80;1.10;;;;;;;23.66;28.01;91721.81;4793024;29;20039;-81
2023/08/06 09:03:14;;;;;;;2.08;1.30;;;;;;;23.67;30.34;91722.56;4791325;30;20027;-81
2023/08/06 09:05:44;;;;;;;2.45;1.30;;;;;;;23.97;31.46;91718.69;4792310;29;20044;-81
2023/08/06 09:08:12;;;;;;;2.17;1.20;;;;;;;24.12;30.60;91722.81;4790531;29;20047;-81
2023/08/06 09:10:40;;;;;;;2.67;1.27;;;;;;;24.37;33.01;91716.59;4792389;29;20035;-80
2023/08/06 09:13:06;;;;;;;2.53;1.30;;;;;;;24.66;33.20;91734.03;4792310;30;20544;-81
2023/08/06 09:15:33;;;;;;;4.10;1.63;;;;;;;24.48;30.64;91741.41;4792578;30;20055;-81
2023/08/06 09:17:59;;;;;;;2.40;1.27;;;;;;;24.36;31.22;91733.78;4791557;29;20548;-81
2023/08/06 09:20:24;;;;;;;2.08;1.20;;;;;;;24.10;31.26;91731.22;4792328;29;20054;-82
2023/08/06 09:22:53;;;;;;;2.33;1.30;;;;;;;23.98;30.42;91715.63;4792425;29;20056;-80
2023/08/06 09:25:23;;;;;;;1.83;1.10;;;;;;;23.98;30.51;91723.66;4792778;29;20027;-81
2023/08/06 09:27:49;;;;;;;2.35;1.20;;;;;;;24.18;30.98;91715.16;4792281;29;20058;-81
2023/08/06 09:30:32;;;;;;;2.03;1.00;;;;;;;24.02;31.27;91719.03;4791696;29;20035;-80
2023/08/06 09:32:58;;;;;;;2.40;1.10;;;;;;;24.34;30.25;91725.38;4791980;29;20138;-81
2023/08/06 09:35:23;;;;;;;1.85;1.10;;;;;;;24.35;27.72;91738.38;4791913;30;20059;-80
2023/08/06 09:37:49;;;;;;;2.65;1.40;;;;;;;24.55;29.52;91741.34;4790636;29;20414;-82
2023/08/06 09:40:28;;;;;;;3.17;1.10;;;;;;;24.67;27.77;91737.44;4791711;29;20047;-81
2023/08/06 09:42:54;;;;;;;1.77;1.00;;;;;;;23.83;26.42;91730.94;4792088;29;20093;-81
2023/08/06 09:45:21;;;;;;;1.70;0.90;;;;;;;24.15;27.54;91718.59;4791091;30;20043;-81
2023/08/06 09:47:55;;;;;;;2.30;1.20;;;;;;;24.09;27.95;91735.06;4791491;29;20073;-81
2023/08/06 09:50:21;;;;;;;2.75;1.00;;;;;;;24.38;27.84;91723.44;4791192;29;20050;-80
2023/08/06 09:52:48;;;;;;;1.30;0.80;;;;;;;24.44;29.03;91727.25;4789587;30;20043;-81
2023/08/06 09:55:14;;;;;;;3.60;1.40;;;;;;;24.70;29.46;91732.09;4789768;30;20031;-81
2023/08/06 09:57:41;;;;;;;1.92;1.10;;;;;;;24.97;28.63;91739.56;4789958;29;20047;-81
2023/08/06 10:00:09;;;;;;;2.33;1.30;;;;;;;25.01;25.22;91732.25;4789608;30;20192;-81
2023/08/06 10:02:39;;;;;;;1.55;1.05;;;;;;;25.04;24.88;91734.16;4791072;29;20134;-81
2023/08/06 10:05:05;;;;;;;3.97;1.17;;;;;;;24.87;27.40;91730.44;4790807;29;20047;-80
2023/08/06 10:07:31;;;;;;;1.40;0.90;;;;;;;24.83;28.18;91735.03;4789753;29;20039;-80
2023/08/06 10:09:58;;;;;;;2.90;0.85;;;;;;;24.48;24.29;91736.81;4789860;30;20069;-80
2023/08/06 10:12:25;;;;;;;1.60;0.93;;;;;;;24.76;28.73;91742.38;4790664;29;20051;-81
2023/08/06 10:14:54;;;;;;;2.40;1.10;;;;;;;24.96;28.07;91732.66;4791247;29;20044;-81
2023/08/06 10:17:22;;;;;;;2.35;1.00;;;;;;;25.26;28.54;91739.34;4790841;29;20039;-81
2023/08/06 10:19:49;;;;;;;1.98;1.00;;;;;;;25.42;28.01;91750.31;4790693;29;20239;-81
2023/08/06 10:22:17;;;;;;;3.03;1.00;;;;;;;25.27;25.35;91743.56;4791058;29;20572;-80
2023/08/06 10:24:52;;;;;;;1.30;0.80;;;;;;;25.04;27.20;91742.19;4791463;29;20055;-81
2023/08/06 10:27:53;;;;;;;0.73;0.73;;;;;;;24.94;25.74;91764.41;4790771;29;20118;-80
2023/08/06 10:30:32;;;;;;;2.78;0.90;;;;;;;25.07;28.07;91751.34;4790279;29;20107;-80
2023/08/06 10:33:02;;;;;;;1.42;1.00;;;;;;;24.85;28.85;91751.47;4774890;30;20396;-80
2023/08/06 10:35:34;;;;;;;2.20;0.85;;;;;;;25.09;28.43;91749.78;4790120;29;20064;-80
2023/08/06 10:38:25;;;;;;;2.58;1.17;;;;;;;25.39;27.53;91759.13;4795444;29;20384;-79
2023/08/06 10:40:54;;;;;;;2.33;1.00;;;;;;;25.51;27.84;91755.19;4790579;29;20047;-81
2023/08/06 10:43:31;;;;;;;2.30;0.95;;;;;;;25.64;27.63;91752.78;4790520;29;20039;-80
2023/08/06 10:45:59;;;;;;;1.05;0.80;;;;;;;25.82;27.33;91753.34;4789404;29;20118;-81
2023/08/06 10:48:39;;;;;;;1.88;1.10;;;;;;;25.88;24.88;91746.44;4790944;29;20694;-80
2023/08/06 10:51:09;;;;;;;1.25;0.90;;;;;;;25.74;26.22;91758.03;4790592;29;20046;-80
2023/08/06 10:53:35;;;;;;;1.35;0.90;;;;;;;25.60;27.12;91747.47;4790590;29;20052;-81
2023/08/06 10:56:02;;;;;;;1.60;0.90;;;;;;;25.69;26.20;91752.34;4790705;29;20035;-80
2023/08/06 10:58:33;;;;;;;2.33;0.80;;;;;;;25.81;26.26;91740.38;4788926;30;20057;-80
2023/08/06 11:00:59;;;;;;;4.40;2.17;;;;;;;25.74;28.37;91741.97;4789400;30;20047;-79
2023/08/06 11:03:27;;;;;;;1.95;1.10;;;;;;;25.88;27.67;91743.75;4789556;29;20554;-79
2023/08/06 11:05:52;;;;;;;6.05;2.10;;;;;;;25.62;26.57;91745.13;4790040;29;20184;-80
2023/08/06 11:08:28;;;;;;;3.58;1.83;;;;;;;25.78;26.67;91744.59;4790664;29;20178;-79
2023/08/06 11:10:54;;;;;;;7.63;4.63;;;;;;;25.67;26.36;91735.88;4789825;30;20043;-80
2023/08/06 11:13:20;;;;;;;2.53;1.20;;;;;;;25.67;26.08;91747.41;4788154;29;20050;-80
2023/08/06 11:15:46;;;;;;;4.13;1.85;;;;;;;25.70;24.98;91738.53;4789762;30;20081;-80
2023/08/06 11:18:12;;;;;;;5.93;2.63;;;;;;;25.60;25.45;91735.97;4789641;29;20043;-80
2023/08/06 11:20:39;;;;;;;3.83;1.88;;;;;;;25.77;26.11;91743.84;4789085;30;20104;-82
2023/08/06 11:23:05;;;;;;;0.65;0.65;;;;;;;25.84;25.15;91751.03;4791117;29;20043;-82
2023/08/06 11:25:31;;;;;;;1.17;0.85;;;;;;;25.76;24.25;91734.28;4790602;29;20406;-81
2023/08/06 11:27:56;;;;;;;3.70;0.82;;;;;;;25.61;24.81;91737.50;4791240;29;20039;-81
2023/08/06 11:30:22;;;;;;;2.90;1.00;;;;;;;25.57;27.57;91736.78;4790277;30;20047;-81
2023/08/06 11:32:48;;;;;;;0.93;0.80;;;;;;;25.71;26.58;91753.50;4786113;30;20118;-81